sensor_id;sensor_type;location;lat;lon;timestamp;temperature;humidity
15394;DHT22;7795;47.986;11.868;2023-07-02T00:00:10;21.60;66.80
15394;DHT22;7795;47.986;11.868;2023-07-02T00:02:37;21.60;67.00
15394;DHT22;7795;47.986;11.868;2023-07-02T00:05:03;21.60;66.90
15394;DHT22;7795;47.986;11.868;2023-07-02T00:07:29;21.60;66.80
15394;DHT22;7795;47.986;11.868;2023-07-02T00:09:55;21.50;66.80
15394;DHT22;7795;47.986;11.868;2023-07-02T00:12:20;21.50;66.90
15394;DHT22;7795;47.986;11.868;2023-07-02T00:14:46;21.50;67.10
15394;DHT22;7795;47.986;11.868;2023-07-02T00:17:13;21.40;67.40
15394;DHT22;7795;47.986;11.868;2023-07-02T00:19:39;21.40;67.80
15394;DHT22;7795;47.986;11.868;2023-07-02T00:22:08;21.30;67.40
15394;DHT22;7795;47.986;11.868;2023-07-02T00:24:34;21.30;67.60
15394;DHT22;7795;47.986;11.868;2023-07-02T00:27:00;21.30;67.80
15394;DHT22;7795;47.986;11.868;2023-07-02T00:29:26;21.30;67.80
15394;DHT22;7795;47.986;11.868;2023-07-02T00:31:51;21.20;67.80
15394;DHT22;7795;47.986;11.868;2023-07-02T00:34:19;21.20;67.80
15394;DHT22;7795;47.986;11.868;2023-07-02T00:36:45;21.20;69.00
15394;DHT22;7795;47.986;11.868;2023-07-02T00:39:11;21.20;68.10
15394;DHT22;7795;47.986;11.868;2023-07-02T00:41:37;21.10;68.10
15394;DHT22;7795;47.986;11.868;2023-07-02T00:44:03;21.10;69.00
15394;DHT22;7795;47.986;11.868;2023-07-02T00:46:30;21.10;68.30
15394;DHT22;7795;47.986;11.868;2023-07-02T00:48:56;21.10;68.60
15394;DHT22;7795;47.986;11.868;2023-07-02T00:51:25;21.00;68.60
15394;DHT22;7795;47.986;11.868;2023-07-02T00:53:54;21.10;69.00
15394;DHT22;7795;47.986;11.868;2023-07-02T00:56:21;21.00;68.90
15394;DHT22;7795;47.986;11.868;2023-07-02T00:58:48;21.00;69.20
15394;DHT22;7795;47.986;11.868;2023-07-02T01:01:17;21.00;69.10
15394;DHT22;7795;47.986;11.868;2023-07-02T01:03:53;21.00;69.90
15394;DHT22;7795;47.986;11.868;2023-07-02T01:06:22;21.00;69.80
15394;DHT22;7795;47.986;11.868;2023-07-02T01:08:53;21.00;69.20
15394;DHT22;7795;47.986;11.868;2023-07-02T01:11:22;21.00;69.30
15394;DHT22;7795;47.986;11.868;2023-07-02T01:13:51;21.00;69.70
15394;DHT22;7795;47.986;11.868;2023-07-02T01:16:18;21.00;69.70
15394;DHT22;7795;47.986;11.868;2023-07-02T01:18:45;21.00;69.60
15394;DHT22;7795;47.986;11.868;2023-07-02T01:21:12;21.00;69.90
15394;DHT22;7795;47.986;11.868;2023-07-02T01:23:38;21.00;70.30
15394;DHT22;7795;47.986;11.868;2023-07-02T01:26:03;21.00;70.30
15394;DHT22;7795;47.986;11.868;2023-07-02T01:28:35;21.00;70.50
15394;DHT22;7795;47.986;11.868;2023-07-02T01:31:03;21.00;71.10
15394;DHT22;7795;47.986;11.868;2023-07-02T01:33:29;21.00;70.70
15394;DHT22;7795;47.986;11.868;2023-07-02T01:35:55;21.00;71.20
15394;DHT22;7795;47.986;11.868;2023-07-02T01:38:22;20.90;70.80
15394;DHT22;7795;47.986;11.868;2023-07-02T01:40:48;20.90;71.10
15394;DHT22;7795;47.986;11.868;2023-07-02T01:43:13;20.90;71.20
15394;DHT22;7795;47.986;11.868;2023-07-02T01:45:41;20.90;71.30
15394;DHT22;7795;47.986;11.868;2023-07-02T01:48:06;20.90;71.60
15394;DHT22;7795;47.986;11.868;2023-07-02T01:50:32;20.80;71.60
15394;DHT22;7795;47.986;11.868;2023-07-02T01:52:58;20.80;71.70
15394;DHT22;7795;47.986;11.868;2023-07-02T01:55:26;20.80;71.90
15394;DHT22;7795;47.986;11.868;2023-07-02T01:57:51;20.80;72.20
15394;DHT22;7795;47.986;11.868;2023-07-02T02:00:18;20.70;72.20
15394;DHT22;7795;47.986;11.868;2023-07-02T02:02:44;20.70;72.40
15394;DHT22;7795;47.986;11.868;2023-07-02T02:05:09;20.70;72.50
15394;DHT22;7795;47.986;11.868;2023-07-02T02:07:35;20.70;72.50
15394;DHT22;7795;47.986;11.868;2023-07-02T02:10:01;20.70;72.70
15394;DHT22;7795;47.986;11.868;2023-07-02T02:12:28;20.70;72.60
15394;DHT22;7795;47.986;11.868;2023-07-02T02:14:55;20.70;72.70
15394;DHT22;7795;47.986;11.868;2023-07-02T02:17:21;20.70;72.50
15394;DHT22;7795;47.986;11.868;2023-07-02T02:19:49;20.70;72.70
15394;DHT22;7795;47.986;11.868;2023-07-02T02:22:15;20.70;72.60
15394;DHT22;7795;47.986;11.868;2023-07-02T02:24:41;20.70;72.70
15394;DHT22;7795;47.986;11.868;2023-07-02T02:27:07;20.70;72.70
15394;DHT22;7795;47.986;11.868;2023-07-02T02:29:34;20.70;72.80
15394;DHT22;7795;47.986;11.868;2023-07-02T02:32:00;20.60;72.90
15394;DHT22;7795;47.986;11.868;2023-07-02T02:34:25;20.60;72.90
15394;DHT22;7795;47.986;11.868;2023-07-02T02:36:51;20.60;73.00
15394;DHT22;7795;47.986;11.868;2023-07-02T02:39:17;20.60;73.10
15394;DHT22;7795;47.986;11.868;2023-07-02T02:41:43;20.60;73.10
15394;DHT22;7795;47.986;11.868;2023-07-02T02:44:09;20.60;73.10
15394;DHT22;7795;47.986;11.868;2023-07-02T02:46:36;20.50;73.10
15394;DHT22;7795;47.986;11.868;2023-07-02T02:49:01;20.50;73.30
15394;DHT22;7795;47.986;11.868;2023-07-02T02:51:27;20.50;73.40
15394;DHT22;7795;47.986;11.868;2023-07-02T02:53:53;20.50;73.30
15394;DHT22;7795;47.986;11.868;2023-07-02T02:56:18;20.50;73.30
15394;DHT22;7795;47.986;11.868;2023-07-02T02:58:44;20.50;73.60
15394;DHT22;7795;47.986;11.868;2023-07-02T03:01:10;20.50;73.80
15394;DHT22;7795;47.986;11.868;2023-07-02T03:03:38;20.50;73.90
15394;DHT22;7795;47.986;11.868;2023-07-02T03:06:04;20.50;74.20
15394;DHT22;7795;47.986;11.868;2023-07-02T03:08:30;20.50;74.00
15394;DHT22;7795;47.986;11.868;2023-07-02T03:10:56;20.50;74.10
15394;DHT22;7795;47.986;11.868;2023-07-02T03:13:22;20.50;74.10
15394;DHT22;7795;47.986;11.868;2023-07-02T03:15:48;20.50;74.20
15394;DHT22;7795;47.986;11.868;2023-07-02T03:18:14;20.50;74.20
15394;DHT22;7795;47.986;11.868;2023-07-02T03:20:41;20.50;74.20
15394;DHT22;7795;47.986;11.868;2023-07-02T03:23:07;20.50;74.50
15394;DHT22;7795;47.986;11.868;2023-07-02T03:25:32;20.50;74.30
15394;DHT22;7795;47.986;11.868;2023-07-02T03:27:58;20.50;74.30
15394;DHT22;7795;47.986;11.868;2023-07-02T03:30:24;20.50;74.40
15394;DHT22;7795;47.986;11.868;2023-07-02T03:32:49;20.50;74.50
15394;DHT22;7795;47.986;11.868;2023-07-02T03:35:15;20.50;74.50
15394;DHT22;7795;47.986;11.868;2023-07-02T03:37:42;20.50;74.40
15394;DHT22;7795;47.986;11.868;2023-07-02T03:40:09;20.50;74.50
15394;DHT22;7795;47.986;11.868;2023-07-02T03:42:35;20.50;74.40
15394;DHT22;7795;47.986;11.868;2023-07-02T03:45:01;20.50;74.60
15394;DHT22;7795;47.986;11.868;2023-07-02T03:47:26;20.50;74.60
15394;DHT22;7795;47.986;11.868;2023-07-02T03:49:52;20.40;74.60
15394;DHT22;7795;47.986;11.868;2023-07-02T03:52:19;20.40;74.70
15394;DHT22;7795;47.986;11.868;2023-07-02T03:54:46;20.40;74.80
15394;DHT22;7795;47.986;11.868;2023-07-02T03:57:12;20.40;74.90
15394;DHT22;7795;47.986;11.868;2023-07-02T03:59:38;20.40;75.80
15394;DHT22;7795;47.986;11.868;2023-07-02T04:02:04;20.40;75.10
15394;DHT22;7795;47.986;11.868;2023-07-02T04:04:30;20.40;75.20
15394;DHT22;7795;47.986;11.868;2023-07-02T04:06:55;20.40;75.10
15394;DHT22;7795;47.986;11.868;2023-07-02T04:09:21;20.40;75.30
15394;DHT22;7795;47.986;11.868;2023-07-02T04:11:48;20.30;75.20
15394;DHT22;7795;47.986;11.868;2023-07-02T04:14:14;20.30;75.60
15394;DHT22;7795;47.986;11.868;2023-07-02T04:16:40;20.30;74.70
15394;DHT22;7795;47.986;11.868;2023-07-02T04:19:06;20.20;73.50
15394;DHT22;7795;47.986;11.868;2023-07-02T04:21:32;20.20;73.20
15394;DHT22;7795;47.986;11.868;2023-07-02T04:23:57;20.00;72.80
15394;DHT22;7795;47.986;11.868;2023-07-02T04:26:23;19.90;72.50
15394;DHT22;7795;47.986;11.868;2023-07-02T04:28:53;19.80;72.20
15394;DHT22;7795;47.986;11.868;2023-07-02T04:31:19;19.70;73.00
15394;DHT22;7795;47.986;11.868;2023-07-02T04:33:45;19.60;72.30
15394;DHT22;7795;47.986;11.868;2023-07-02T04:36:11;19.50;72.50
15394;DHT22;7795;47.986;11.868;2023-07-02T04:38:37;19.40;72.60
15394;DHT22;7795;47.986;11.868;2023-07-02T04:41:04;19.30;72.80
15394;DHT22;7795;47.986;11.868;2023-07-02T04:43:30;19.30;73.00
15394;DHT22;7795;47.986;11.868;2023-07-02T04:45:58;19.20;73.10
15394;DHT22;7795;47.986;11.868;2023-07-02T04:48:24;19.20;74.00
15394;DHT22;7795;47.986;11.868;2023-07-02T04:50:49;19.10;73.20
15394;DHT22;7795;47.986;11.868;2023-07-02T04:53:15;19.10;73.40
15394;DHT22;7795;47.986;11.868;2023-07-02T04:55:41;19.00;73.50
15394;DHT22;7795;47.986;11.868;2023-07-02T04:58:07;19.00;73.80
15394;DHT22;7795;47.986;11.868;2023-07-02T05:00:33;19.00;74.10
15394;DHT22;7795;47.986;11.868;2023-07-02T05:03:00;19.00;74.10
15394;DHT22;7795;47.986;11.868;2023-07-02T05:05:26;19.00;74.10
15394;DHT22;7795;47.986;11.868;2023-07-02T05:07:51;19.00;74.10
15394;DHT22;7795;47.986;11.868;2023-07-02T05:10:17;19.00;74.10
15394;DHT22;7795;47.986;11.868;2023-07-02T05:12:43;19.00;74.20
15394;DHT22;7795;47.986;11.868;2023-07-02T05:15:09;19.00;74.10
15394;DHT22;7795;47.986;11.868;2023-07-02T05:17:37;19.00;74.30
15394;DHT22;7795;47.986;11.868;2023-07-02T05:20:06;19.00;74.30
15394;DHT22;7795;47.986;11.868;2023-07-02T05:22:32;19.00;74.60
15394;DHT22;7795;47.986;11.868;2023-07-02T05:24:57;18.90;74.50
15394;DHT22;7795;47.986;11.868;2023-07-02T05:27:23;19.00;74.60
15394;DHT22;7795;47.986;11.868;2023-07-02T05:29:49;19.00;74.60
15394;DHT22;7795;47.986;11.868;2023-07-02T05:32:15;19.00;74.60
15394;DHT22;7795;47.986;11.868;2023-07-02T05:34:41;19.00;74.40
15394;DHT22;7795;47.986;11.868;2023-07-02T05:37:08;19.00;74.40
15394;DHT22;7795;47.986;11.868;2023-07-02T05:39:33;19.00;74.60
15394;DHT22;7795;47.986;11.868;2023-07-02T05:41:59;19.00;74.60
15394;DHT22;7795;47.986;11.868;2023-07-02T05:44:25;18.90;74.70
15394;DHT22;7795;47.986;11.868;2023-07-02T05:46:51;18.90;74.80
15394;DHT22;7795;47.986;11.868;2023-07-02T05:49:16;19.00;75.00
15394;DHT22;7795;47.986;11.868;2023-07-02T05:51:42;19.00;74.90
15394;DHT22;7795;47.986;11.868;2023-07-02T05:54:09;19.00;74.80
15394;DHT22;7795;47.986;11.868;2023-07-02T05:56:35;19.00;74.80
15394;DHT22;7795;47.986;11.868;2023-07-02T05:59:01;19.00;74.70
15394;DHT22;7795;47.986;11.868;2023-07-02T06:01:26;19.00;74.80
15394;DHT22;7795;47.986;11.868;2023-07-02T06:03:52;19.00;75.00
15394;DHT22;7795;47.986;11.868;2023-07-02T06:06:18;19.00;75.10
15394;DHT22;7795;47.986;11.868;2023-07-02T06:08:44;19.10;75.80
15394;DHT22;7795;47.986;11.868;2023-07-02T06:11:11;19.10;74.90
15394;DHT22;7795;47.986;11.868;2023-07-02T06:13:37;19.10;75.00
15394;DHT22;7795;47.986;11.868;2023-07-02T06:16:03;19.10;75.80
15394;DHT22;7795;47.986;11.868;2023-07-02T06:18:29;19.10;75.10
15394;DHT22;7795;47.986;11.868;2023-07-02T06:20:55;19.20;75.10
15394;DHT22;7795;47.986;11.868;2023-07-02T06:23:21;19.20;75.90
15394;DHT22;7795;47.986;11.868;2023-07-02T06:25:46;19.20;75.20
15394;DHT22;7795;47.986;11.868;2023-07-02T06:28:13;19.20;75.10
15394;DHT22;7795;47.986;11.868;2023-07-02T06:30:39;19.30;75.20
15394;DHT22;7795;47.986;11.868;2023-07-02T06:33:05;19.30;75.30
15394;DHT22;7795;47.986;11.868;2023-07-02T06:35:31;19.30;75.30
15394;DHT22;7795;47.986;11.868;2023-07-02T06:37:56;19.40;75.50
15394;DHT22;7795;47.986;11.868;2023-07-02T06:40:22;19.40;75.60
15394;DHT22;7795;47.986;11.868;2023-07-02T06:42:48;19.40;75.50
15394;DHT22;7795;47.986;11.868;2023-07-02T06:45:15;19.40;75.30
15394;DHT22;7795;47.986;11.868;2023-07-02T06:47:41;19.50;75.50
15394;DHT22;7795;47.986;11.868;2023-07-02T06:50:07;19.50;75.40
15394;DHT22;7795;47.986;11.868;2023-07-02T06:52:33;19.60;75.40
15394;DHT22;7795;47.986;11.868;2023-07-02T06:54:58;19.60;75.40
15394;DHT22;7795;47.986;11.868;2023-07-02T06:57:24;19.70;75.40
15394;DHT22;7795;47.986;11.868;2023-07-02T06:59:50;19.70;75.40
15394;DHT22;7795;47.986;11.868;2023-07-02T07:02:18;19.80;75.40
15394;DHT22;7795;47.986;11.868;2023-07-02T07:04:43;19.80;76.10
15394;DHT22;7795;47.986;11.868;2023-07-02T07:07:09;19.80;75.20
15394;DHT22;7795;47.986;11.868;2023-07-02T07:09:35;19.90;75.30
15394;DHT22;7795;47.986;11.868;2023-07-02T07:12:00;19.90;75.20
15394;DHT22;7795;47.986;11.868;2023-07-02T07:14:26;20.00;75.20
15394;DHT22;7795;47.986;11.868;2023-07-02T07:16:52;20.00;75.20
15394;DHT22;7795;47.986;11.868;2023-07-02T07:19:19;20.00;75.30
15394;DHT22;7795;47.986;11.868;2023-07-02T07:21:45;20.00;75.30
15394;DHT22;7795;47.986;11.868;2023-07-02T07:24:11;20.10;75.30
15394;DHT22;7795;47.986;11.868;2023-07-02T07:26:36;20.10;75.20
15394;DHT22;7795;47.986;11.868;2023-07-02T07:29:03;20.10;75.30
15394;DHT22;7795;47.986;11.868;2023-07-02T07:31:29;20.20;75.60
15394;DHT22;7795;47.986;11.868;2023-07-02T07:33:55;20.20;75.50
15394;DHT22;7795;47.986;11.868;2023-07-02T07:36:22;20.20;75.50
15394;DHT22;7795;47.986;11.868;2023-07-02T07:38:48;20.20;75.60
15394;DHT22;7795;47.986;11.868;2023-07-02T07:41:13;20.20;75.60
15394;DHT22;7795;47.986;11.868;2023-07-02T07:43:39;20.30;75.60
15394;DHT22;7795;47.986;11.868;2023-07-02T07:46:05;20.30;75.60
15394;DHT22;7795;47.986;11.868;2023-07-02T07:48:31;20.30;75.50
15394;DHT22;7795;47.986;11.868;2023-07-02T07:50:57;20.30;76.10
15394;DHT22;7795;47.986;11.868;2023-07-02T07:53:24;20.40;75.30
15394;DHT22;7795;47.986;11.868;2023-07-02T07:55:50;20.30;75.10
15394;DHT22;7795;47.986;11.868;2023-07-02T07:58:15;20.30;74.90
15394;DHT22;7795;47.986;11.868;2023-07-02T08:00:41;20.30;75.10
15394;DHT22;7795;47.986;11.868;2023-07-02T08:03:07;20.20;75.10
15394;DHT22;7795;47.986;11.868;2023-07-02T08:05:33;20.20;75.20
15394;DHT22;7795;47.986;11.868;2023-07-02T08:07:58;20.20;75.10
15394;DHT22;7795;47.986;11.868;2023-07-02T08:10:26;20.10;74.80
15394;DHT22;7795;47.986;11.868;2023-07-02T08:12:53;20.10;75.00
15394;DHT22;7795;47.986;11.868;2023-07-02T08:15:19;20.00;75.10
15394;DHT22;7795;47.986;11.868;2023-07-02T08:17:45;19.90;75.90
15394;DHT22;7795;47.986;11.868;2023-07-02T08:20:11;19.90;75.90
15394;DHT22;7795;47.986;11.868;2023-07-02T08:22:37;19.90;75.30
15394;DHT22;7795;47.986;11.868;2023-07-02T08:25:04;19.90;75.60
15394;DHT22;7795;47.986;11.868;2023-07-02T08:27:31;19.90;75.70
15394;DHT22;7795;47.986;11.868;2023-07-02T08:29:57;19.80;75.80
15394;DHT22;7795;47.986;11.868;2023-07-02T08:32:23;19.80;75.90
15394;DHT22;7795;47.986;11.868;2023-07-02T08:34:48;19.80;75.90
15394;DHT22;7795;47.986;11.868;2023-07-02T08:37:16;19.90;76.10
15394;DHT22;7795;47.986;11.868;2023-07-02T08:39:41;19.90;76.20
15394;DHT22;7795;47.986;11.868;2023-07-02T08:42:08;19.90;76.40
15394;DHT22;7795;47.986;11.868;2023-07-02T08:44:35;19.90;76.20
15394;DHT22;7795;47.986;11.868;2023-07-02T08:47:01;19.90;76.20
15394;DHT22;7795;47.986;11.868;2023-07-02T08:49:27;19.90;76.10
15394;DHT22;7795;47.986;11.868;2023-07-02T08:51:53;19.90;76.10
15394;DHT22;7795;47.986;11.868;2023-07-02T08:54:19;19.90;76.40
15394;DHT22;7795;47.986;11.868;2023-07-02T08:56:45;19.90;76.40
15394;DHT22;7795;47.986;11.868;2023-07-02T08:59:11;19.90;76.40
15394;DHT22;7795;47.986;11.868;2023-07-02T09:01:49;19.90;76.40
15394;DHT22;7795;47.986;11.868;2023-07-02T09:04:16;19.90;76.80
15394;DHT22;7795;47.986;11.868;2023-07-02T09:06:42;19.90;76.50
15394;DHT22;7795;47.986;11.868;2023-07-02T09:09:07;20.00;76.40
15394;DHT22;7795;47.986;11.868;2023-07-02T09:11:34;20.00;76.50
15394;DHT22;7795;47.986;11.868;2023-07-02T09:14:00;19.90;76.40
15394;DHT22;7795;47.986;11.868;2023-07-02T09:16:27;19.90;76.30
15394;DHT22;7795;47.986;11.868;2023-07-02T09:19:02;20.00;76.40
15394;DHT22;7795;47.986;11.868;2023-07-02T09:21:38;20.00;76.80
15394;DHT22;7795;47.986;11.868;2023-07-02T09:24:13;20.00;76.80
15394;DHT22;7795;47.986;11.868;2023-07-02T09:26:42;20.00;76.80
15394;DHT22;7795;47.986;11.868;2023-07-02T09:29:08;20.00;76.60
15394;DHT22;7795;47.986;11.868;2023-07-02T09:31:43;20.00;76.40
15394;DHT22;7795;47.986;11.868;2023-07-02T09:34:10;20.00;76.70
15394;DHT22;7795;47.986;11.868;2023-07-02T09:36:36;20.00;76.80
15394;DHT22;7795;47.986;11.868;2023-07-02T09:39:06;20.10;76.90
15394;DHT22;7795;47.986;11.868;2023-07-02T09:41:32;20.10;77.00
15394;DHT22;7795;47.986;11.868;2023-07-02T09:43:59;20.20;77.50
15394;DHT22;7795;47.986;11.868;2023-07-02T09:46:26;20.20;77.40
15394;DHT22;7795;47.986;11.868;2023-07-02T09:48:52;20.30;77.50
15394;DHT22;7795;47.986;11.868;2023-07-02T09:51:20;20.40;77.60
15394;DHT22;7795;47.986;11.868;2023-07-02T09:53:45;20.50;77.10
15394;DHT22;7795;47.986;11.868;2023-07-02T09:56:11;20.50;76.80
15394;DHT22;7795;47.986;11.868;2023-07-02T09:58:37;20.60;76.80
15394;DHT22;7795;47.986;11.868;2023-07-02T10:01:03;20.70;76.70
15394;DHT22;7795;47.986;11.868;2023-07-02T10:03:30;20.70;76.60
15394;DHT22;7795;47.986;11.868;2023-07-02T10:06:03;20.80;76.60
15394;DHT22;7795;47.986;11.868;2023-07-02T10:08:31;20.90;76.30
15394;DHT22;7795;47.986;11.868;2023-07-02T10:11:09;21.00;76.10
15394;DHT22;7795;47.986;11.868;2023-07-02T10:13:35;21.10;75.60
15394;DHT22;7795;47.986;11.868;2023-07-02T10:16:01;21.20;75.60
15394;DHT22;7795;47.986;11.868;2023-07-02T10:18:27;21.30;75.60
15394;DHT22;7795;47.986;11.868;2023-07-02T10:20:53;21.30;75.40
15394;DHT22;7795;47.986;11.868;2023-07-02T10:23:19;21.40;75.20
15394;DHT22;7795;47.986;11.868;2023-07-02T10:25:46;21.50;74.90
15394;DHT22;7795;47.986;11.868;2023-07-02T10:28:16;21.50;74.70
15394;DHT22;7795;47.986;11.868;2023-07-02T10:30:42;21.60;74.50
15394;DHT22;7795;47.986;11.868;2023-07-02T10:33:09;21.60;74.50
15394;DHT22;7795;47.986;11.868;2023-07-02T10:35:35;21.70;74.30
15394;DHT22;7795;47.986;11.868;2023-07-02T10:38:01;21.80;74.10
15394;DHT22;7795;47.986;11.868;2023-07-02T10:40:29;21.80;74.10
15394;DHT22;7795;47.986;11.868;2023-07-02T10:42:56;21.90;74.00
15394;DHT22;7795;47.986;11.868;2023-07-02T10:45:31;22.00;73.90
15394;DHT22;7795;47.986;11.868;2023-07-02T10:47:57;22.00;73.90
15394;DHT22;7795;47.986;11.868;2023-07-02T10:50:22;22.10;73.80
15394;DHT22;7795;47.986;11.868;2023-07-02T10:52:49;22.20;73.80
15394;DHT22;7795;47.986;11.868;2023-07-02T10:55:18;22.20;73.50
15394;DHT22;7795;47.986;11.868;2023-07-02T10:57:44;22.30;73.30
15394;DHT22;7795;47.986;11.868;2023-07-02T11:00:12;22.40;73.10
15394;DHT22;7795;47.986;11.868;2023-07-02T11:02:38;22.50;73.10
15394;DHT22;7795;47.986;11.868;2023-07-02T11:05:04;22.60;73.10
15394;DHT22;7795;47.986;11.868;2023-07-02T11:07:31;22.70;73.10
15394;DHT22;7795;47.986;11.868;2023-07-02T11:09:57;22.80;72.90
15394;DHT22;7795;47.986;11.868;2023-07-02T11:12:27;22.90;72.50
15394;DHT22;7795;47.986;11.868;2023-07-02T11:14:53;23.00;71.90
15394;DHT22;7795;47.986;11.868;2023-07-02T11:17:24;23.10;71.80
15394;DHT22;7795;47.986;11.868;2023-07-02T11:19:51;23.10;71.10
15394;DHT22;7795;47.986;11.868;2023-07-02T11:22:17;23.30;71.30
15394;DHT22;7795;47.986;11.868;2023-07-02T11:24:43;23.30;71.50
15394;DHT22;7795;47.986;11.868;2023-07-02T11:27:08;23.40;71.50
15394;DHT22;7795;47.986;11.868;2023-07-02T11:29:35;23.50;71.20
15394;DHT22;7795;47.986;11.868;2023-07-02T11:32:07;23.60;71.20
15394;DHT22;7795;47.986;11.868;2023-07-02T11:34:36;23.70;70.30
15394;DHT22;7795;47.986;11.868;2023-07-02T11:37:03;23.70;70.50
15394;DHT22;7795;47.986;11.868;2023-07-02T11:39:30;23.80;70.20
15394;DHT22;7795;47.986;11.868;2023-07-02T11:41:56;23.90;70.20
15394;DHT22;7795;47.986;11.868;2023-07-02T11:44:21;23.90;70.00
15394;DHT22;7795;47.986;11.868;2023-07-02T11:46:47;24.00;69.80
15394;DHT22;7795;47.986;11.868;2023-07-02T11:49:14;24.00;69.40
15394;DHT22;7795;47.986;11.868;2023-07-02T11:51:42;24.10;69.30
15394;DHT22;7795;47.986;11.868;2023-07-02T11:54:13;24.10;68.80
15394;DHT22;7795;47.986;11.868;2023-07-02T11:56:39;24.20;68.60
15394;DHT22;7795;47.986;11.868;2023-07-02T11:59:07;24.20;68.40
15394;DHT22;7795;47.986;11.868;2023-07-02T12:01:33;24.30;69.20
15394;DHT22;7795;47.986;11.868;2023-07-02T12:03:59;24.30;68.40
15394;DHT22;7795;47.986;11.868;2023-07-02T12:06:24;24.30;68.30
15394;DHT22;7795;47.986;11.868;2023-07-02T12:08:52;24.40;68.00
15394;DHT22;7795;47.986;11.868;2023-07-02T12:11:17;24.40;67.70
15394;DHT22;7795;47.986;11.868;2023-07-02T12:13:43;24.50;67.70
15394;DHT22;7795;47.986;11.868;2023-07-02T12:16:09;24.50;67.70
15394;DHT22;7795;47.986;11.868;2023-07-02T12:18:35;24.60;67.60
15394;DHT22;7795;47.986;11.868;2023-07-02T12:21:01;24.60;67.00
15394;DHT22;7795;47.986;11.868;2023-07-02T12:23:26;24.60;66.90
15394;DHT22;7795;47.986;11.868;2023-07-02T12:25:53;24.60;66.70
15394;DHT22;7795;47.986;11.868;2023-07-02T12:28:19;24.70;66.40
15394;DHT22;7795;47.986;11.868;2023-07-02T12:30:49;24.70;66.10
15394;DHT22;7795;47.986;11.868;2023-07-02T12:33:15;24.80;65.80
15394;DHT22;7795;47.986;11.868;2023-07-02T12:35:41;24.80;65.70
15394;DHT22;7795;47.986;11.868;2023-07-02T12:38:06;24.80;65.10
15394;DHT22;7795;47.986;11.868;2023-07-02T12:40:34;24.90;65.40
15394;DHT22;7795;47.986;11.868;2023-07-02T12:43:01;24.90;64.70
15394;DHT22;7795;47.986;11.868;2023-07-02T12:45:27;24.90;64.00
15394;DHT22;7795;47.986;11.868;2023-07-02T12:47:52;24.90;63.90
15394;DHT22;7795;47.986;11.868;2023-07-02T12:50:18;24.90;63.80
15394;DHT22;7795;47.986;11.868;2023-07-02T12:52:44;25.00;63.70
15394;DHT22;7795;47.986;11.868;2023-07-02T12:55:10;25.00;63.10
15394;DHT22;7795;47.986;11.868;2023-07-02T12:57:35;25.00;63.20
15394;DHT22;7795;47.986;11.868;2023-07-02T13:00:03;25.00;63.10
15394;DHT22;7795;47.986;11.868;2023-07-02T13:02:31;25.00;62.40
15394;DHT22;7795;47.986;11.868;2023-07-02T13:04:57;25.00;62.70
15394;DHT22;7795;47.986;11.868;2023-07-02T13:07:23;25.00;62.70
15394;DHT22;7795;47.986;11.868;2023-07-02T13:09:49;25.00;62.70
15394;DHT22;7795;47.986;11.868;2023-07-02T13:12:15;25.00;62.30
15394;DHT22;7795;47.986;11.868;2023-07-02T13:14:40;25.00;62.10
15394;DHT22;7795;47.986;11.868;2023-07-02T13:17:08;24.90;62.10
15394;DHT22;7795;47.986;11.868;2023-07-02T13:19:33;25.00;61.70
15394;DHT22;7795;47.986;11.868;2023-07-02T13:22:01;25.00;62.00
15394;DHT22;7795;47.986;11.868;2023-07-02T13:24:32;25.00;62.90
15394;DHT22;7795;47.986;11.868;2023-07-02T13:26:59;25.00;61.80
15394;DHT22;7795;47.986;11.868;2023-07-02T13:29:26;25.00;62.00
15394;DHT22;7795;47.986;11.868;2023-07-02T13:31:51;25.00;61.80
15394;DHT22;7795;47.986;11.868;2023-07-02T13:34:18;25.00;61.40
15394;DHT22;7795;47.986;11.868;2023-07-02T13:36:44;25.10;61.10
15394;DHT22;7795;47.986;11.868;2023-07-02T13:39:10;25.10;61.10
15394;DHT22;7795;47.986;11.868;2023-07-02T13:41:35;25.10;61.00
15394;DHT22;7795;47.986;11.868;2023-07-02T13:44:01;25.20;60.90
15394;DHT22;7795;47.986;11.868;2023-07-02T13:46:27;25.20;60.50
15394;DHT22;7795;47.986;11.868;2023-07-02T13:48:53;25.20;59.90
15394;DHT22;7795;47.986;11.868;2023-07-02T13:51:20;25.20;60.00
15394;DHT22;7795;47.986;11.868;2023-07-02T13:53:45;25.30;59.70
15394;DHT22;7795;47.986;11.868;2023-07-02T13:56:11;25.30;59.80
15394;DHT22;7795;47.986;11.868;2023-07-02T13:58:59;25.40;59.30
15394;DHT22;7795;47.986;11.868;2023-07-02T14:01:25;25.50;58.40
15394;DHT22;7795;47.986;11.868;2023-07-02T14:03:51;25.50;59.00
15394;DHT22;7795;47.986;11.868;2023-07-02T14:06:18;25.50;58.50
15394;DHT22;7795;47.986;11.868;2023-07-02T14:08:43;25.60;57.30
15394;DHT22;7795;47.986;11.868;2023-07-02T14:11:09;25.60;57.40
15394;DHT22;7795;47.986;11.868;2023-07-02T14:13:35;25.60;57.50
15394;DHT22;7795;47.986;11.868;2023-07-02T14:16:03;25.60;57.50
15394;DHT22;7795;47.986;11.868;2023-07-02T14:18:29;25.70;56.40
15394;DHT22;7795;47.986;11.868;2023-07-02T14:20:55;25.70;56.50
15394;DHT22;7795;47.986;11.868;2023-07-02T14:23:21;25.80;56.60
15394;DHT22;7795;47.986;11.868;2023-07-02T14:25:46;25.80;56.40
15394;DHT22;7795;47.986;11.868;2023-07-02T14:28:12;25.80;56.40
15394;DHT22;7795;47.986;11.868;2023-07-02T14:30:38;25.90;56.10
15394;DHT22;7795;47.986;11.868;2023-07-02T14:33:05;25.90;55.70
15394;DHT22;7795;47.986;11.868;2023-07-02T14:35:31;25.90;55.90
15394;DHT22;7795;47.986;11.868;2023-07-02T14:37:57;25.90;55.90
15394;DHT22;7795;47.986;11.868;2023-07-02T14:40:23;25.90;56.00
15394;DHT22;7795;47.986;11.868;2023-07-02T14:42:49;25.90;55.80
15394;DHT22;7795;47.986;11.868;2023-07-02T14:45:15;26.00;56.10
15394;DHT22;7795;47.986;11.868;2023-07-02T14:47:42;26.00;55.40
15394;DHT22;7795;47.986;11.868;2023-07-02T14:50:09;26.00;55.80
15394;DHT22;7795;47.986;11.868;2023-07-02T14:52:35;26.00;55.20
15394;DHT22;7795;47.986;11.868;2023-07-02T14:55:01;26.10;55.40
15394;DHT22;7795;47.986;11.868;2023-07-02T14:57:27;26.10;55.40
15394;DHT22;7795;47.986;11.868;2023-07-02T14:59:53;26.20;55.10
15394;DHT22;7795;47.986;11.868;2023-07-02T15:02:19;26.20;55.20
15394;DHT22;7795;47.986;11.868;2023-07-02T15:04:45;26.20;55.10
15394;DHT22;7795;47.986;11.868;2023-07-02T15:07:12;26.20;55.50
15394;DHT22;7795;47.986;11.868;2023-07-02T15:09:38;26.30;54.60
15394;DHT22;7795;47.986;11.868;2023-07-02T15:12:04;26.30;54.90
15394;DHT22;7795;47.986;11.868;2023-07-02T15:14:29;26.40;55.10
15394;DHT22;7795;47.986;11.868;2023-07-02T15:16:55;26.40;55.10
15394;DHT22;7795;47.986;11.868;2023-07-02T15:19:21;26.50;54.90
15394;DHT22;7795;47.986;11.868;2023-07-02T15:21:47;26.60;54.70
15394;DHT22;7795;47.986;11.868;2023-07-02T15:24:14;26.60;54.50